Time;durP1;ratioP1;P1;durP2;ratioP2;P2;SDS_P1;SDS_P2;PMS_P1;PMS_P2;Temp;Humidity;BMP_temperature;BMP_pressure;BME280_temperature;BME280_humidity;BME280_pressure;Samples;Min_cycle;Max_cycle;Signal;HPM_P1;HPM_P2
2024/01/19 00:56:52;;;;;;;3.70;1.50;;;16.70;56.50;;;;;;6151349;23;20202;-82
2024/01/19 00:59:18;;;;;;;3.72;1.40;;;16.70;56.60;;;;;;6143884;23;20475;-82
2024/01/19 01:01:44;;;;;;;4.90;1.40;;;16.60;56.70;;;;;;6096771;23;20148;-82
2024/01/19 01:04:14;;;;;;;3.63;1.52;;;16.70;56.60;;;;;;6095506;23;20139;-82
2024/01/19 01:06:39;;;;;;;6.32;1.67;;;16.80;56.70;;;;;;6097326;23;20175;-82
2024/01/19 01:09:07;;;;;;;6.63;1.52;;;16.70;56.60;;;;;;6119611;23;20205;-82
2024/01/19 01:11:36;;;;;;;4.38;1.88;;;16.60;56.70;;;;;;6095798;23;20139;-83
2024/01/19 01:14:09;;;;;;;4.75;1.80;;;16.60;56.70;;;;;;6119239;23;20147;-82
2024/01/19 01:19:06;;;;;;;4.18;1.55;;;16.70;56.70;;;;;;6162651;23;20210;-82
2024/01/19 01:21:43;;;;;;;7.95;1.63;;;16.70;56.60;;;;;;6071445;23;20234;-82
2024/01/19 01:24:18;;;;;;;6.45;1.48;;;16.70;56.60;;;;;;6090889;23;20176;-82
2024/01/19 01:26:45;;;;;;;5.28;1.50;;;16.60;56.70;;;;;;6032022;23;20243;-81
2024/01/19 01:29:12;;;;;;;3.30;1.30;;;16.70;56.90;;;;;;6031648;23;20157;-82
2024/01/19 01:31:45;;;;;;;3.80;1.58;;;16.60;56.60;;;;;;6032258;23;20281;-82
2024/01/19 01:34:16;;;;;;;3.38;1.65;;;16.60;56.60;;;;;;6032441;23;20153;-83
2024/01/19 01:36:59;;;;;;;4.35;1.50;;;16.60;56.80;;;;;;5975142;23;20198;-82
2024/01/19 01:39:32;;;;;;;4.85;1.30;;;16.70;56.80;;;;;;5993608;24;20155;-83
2024/01/19 01:42:10;;;;;;;3.75;1.27;;;16.60;56.60;;;;;;5994682;24;20155;-82
2024/01/19 01:44:39;;;;;;;4.57;1.65;;;16.60;56.60;;;;;;5965704;24;20165;-82
2024/01/19 01:47:14;;;;;;;6.38;1.50;;;16.60;56.50;;;;;;5943509;24;20251;-82
2024/01/19 01:49:46;;;;;;;4.22;1.33;;;16.60;56.50;;;;;;5968272;24;20537;-82
2024/01/19 01:52:16;;;;;;;6.63;1.52;;;16.60;56.60;;;;;;5967661;24;20216;-82
2024/01/19 01:54:44;;;;;;;5.15;1.45;;;16.60;56.70;;;;;;5967495;23;20164;-82
2024/01/19 01:57:22;;;;;;;3.92;1.50;;;16.50;56.70;;;;;;5972289;24;20263;-82
2024/01/19 01:59:53;;;;;;;5.30;1.90;;;16.60;56.60;;;;;;5918487;24;20157;-82
2024/01/19 02:02:49;;;;;;;6.40;2.13;;;16.60;56.70;;;;;;5917256;24;20157;-82
2024/01/19 02:08:37;;;;;;;4.30;1.40;;;16.60;56.70;;;;;;5880307;24;20193;-82
2024/01/19 02:11:10;;;;;;;4.90;1.50;;;16.60;56.70;;;;;;5863924;24;20154;-82
2024/01/19 02:13:39;;;;;;;4.57;1.42;;;16.50;56.70;;;;;;5885244;24;20158;-82
2024/01/19 02:16:07;;;;;;;2.83;1.33;;;16.60;56.60;;;;;;5809839;24;20191;-82
2024/01/19 02:18:35;;;;;;;4.57;1.45;;;16.60;56.40;;;;;;5861037;24;20214;-82
2024/01/19 02:21:05;;;;;;;6.55;1.45;;;16.60;56.70;;;;;;5836356;24;20211;-82
2024/01/19 02:23:43;;;;;;;3.40;1.40;;;16.50;56.60;;;;;;5832120;24;20219;-82
2024/01/19 02:26:14;;;;;;;3.72;1.45;;;16.50;56.10;;;;;;5831402;24;20576;-82
2024/01/19 02:28:46;;;;;;;5.13;1.70;;;16.60;56.70;;;;;;5826487;24;20166;-83
2024/01/19 02:31:15;;;;;;;2.58;1.30;;;16.50;56.50;;;;;;5814816;24;20249;-82
2024/01/19 02:33:44;;;;;;;3.20;1.42;;;16.50;56.50;;;;;;5836696;24;20159;-82
2024/01/19 02:36:21;;;;;;;3.65;1.63;;;16.50;56.30;;;;;;5814091;24;20254;-83
2024/01/19 02:38:51;;;;;;;3.00;1.50;;;16.50;56.60;;;;;;5792569;24;20174;-82
2024/01/19 02:41:17;;;;;;;3.70;1.40;;;16.60;56.50;;;;;;5814088;24;20158;-83
2024/01/19 02:43:43;;;;;;;6.22;1.73;;;16.50;56.30;;;;;;5809603;24;20211;-81
2024/01/19 02:46:19;;;;;;;4.35;1.40;;;16.50;56.50;;;;;;5823901;24;20236;-82
2024/01/19 02:48:44;;;;;;;3.92;1.38;;;16.50;56.40;;;;;;5845926;24;20154;-82
2024/01/19 02:51:12;;;;;;;6.55;1.45;;;16.50;56.20;;;;;;5894755;24;20259;-83
2024/01/19 02:53:37;;;;;;;3.97;1.40;;;16.50;56.40;;;;;;5893937;24;20182;-82
2024/01/19 02:56:07;;;;;;;4.57;1.67;;;16.50;56.60;;;;;;5935348;24;20159;-82
2024/01/19 02:58:39;;;;;;;4.47;1.30;;;16.50;56.50;;;;;;5974763;23;20148;-83
2024/01/19 03:01:18;;;;;;;5.47;1.50;;;16.40;56.50;;;;;;5926865;24;20259;-83
2024/01/19 03:03:51;;;;;;;3.90;1.40;;;16.50;56.50;;;;;;5972624;24;20251;-82
2024/01/19 03:06:19;;;;;;;4.55;1.63;;;16.40;56.40;;;;;;5916564;24;20197;-82
2024/01/19 03:08:49;;;;;;;5.65;1.65;;;16.50;56.40;;;;;;5939866;24;20149;-82
2024/01/19 03:11:27;;;;;;;3.25;1.20;;;16.50;56.50;;;;;;5911967;24;20168;-83
2024/01/19 03:14:01;;;;;;;5.25;1.40;;;16.50;56.60;;;;;;5916941;24;20170;-82
2024/01/19 03:16:30;;;;;;;6.03;1.77;;;16.50;56.60;;;;;;5952454;24;20166;-82
2024/01/19 03:19:00;;;;;;;4.18;1.38;;;16.50;56.40;;;;;;5972236;24;20677;-82
2024/01/19 03:21:32;;;;;;;3.13;1.13;;;16.40;56.60;;;;;;5915955;24;20161;-82
2024/01/19 03:24:04;;;;;;;4.03;1.27;;;16.40;56.60;;;;;;5916999;24;20167;-82
2024/01/19 03:26:31;;;;;;;6.30;1.60;;;16.40;56.50;;;;;;5944482;24;20196;-82
2024/01/19 03:29:04;;;;;;;5.65;1.40;;;16.40;56.70;;;;;;5968122;24;20160;-82
2024/01/19 03:31:30;;;;;;;4.70;1.40;;;16.50;56.70;;;;;;5900524;24;20159;-82
2024/01/19 03:34:05;;;;;;;6.70;1.83;;;16.40;56.60;;;;;;5939864;24;20161;-82
2024/01/19 03:36:37;;;;;;;3.58;1.40;;;16.40;56.50;;;;;;5945619;24;20628;-82
2024/01/19 03:39:16;;;;;;;3.58;1.30;;;16.40;56.50;;;;;;5945593;24;20152;-82
2024/01/19 03:41:56;;;;;;;5.18;1.55;;;16.40;56.40;;;;;;5936780;23;20221;-82
2024/01/19 03:44:23;;;;;;;4.95;1.17;;;16.40;56.30;;;;;;5975990;23;20158;-83
2024/01/19 03:46:59;;;;;;;5.28;1.63;;;16.40;56.40;;;;;;6023596;23;20227;-82
2024/01/19 03:49:31;;;;;;;3.88;1.50;;;16.40;56.40;;;;;;5975089;23;20154;-81
2024/01/19 03:52:05;;;;;;;7.55;1.48;;;16.40;56.40;;;;;;6009072;23;20154;-82
2024/01/19 03:54:38;;;;;;;3.58;1.23;;;16.40;56.50;;;;;;6005575;23;20149;-82
2024/01/19 03:57:06;;;;;;;8.43;1.80;;;16.40;56.20;;;;;;5981674;23;20157;-82
2024/01/19 03:59:40;;;;;;;5.57;1.50;;;16.40;56.50;;;;;;6004138;23;20150;-82
2024/01/19 04:02:12;;;;;;;3.00;1.50;;;16.40;56.40;;;;;;6005180;23;20278;-82
2024/01/19 04:04:45;;;;;;;4.75;1.27;;;16.40;57.00;;;;;;6019818;23;20148;-82
2024/01/19 04:07:19;;;;;;;2.50;1.10;;;16.40;56.50;;;;;;6108785;23;20188;-82
2024/01/19 04:09:45;;;;;;;2.33;1.15;;;16.40;56.50;;;;;;6060233;23;20231;-82
2024/01/19 04:12:18;;;;;;;3.92;1.60;;;16.40;56.70;;;;;;6027619;23;20150;-82
2024/01/19 04:14:58;;;;;;;3.42;1.50;;;16.40;56.40;;;;;;5948786;24;20197;-82
2024/01/19 04:17:26;;;;;;;4.20;1.33;;;16.40;56.40;;;;;;5950078;24;20162;-83
2024/01/19 04:20:13;;;;;;;2.60;1.40;;;16.40;56.40;;;;;;5949055;24;20207;-83
2024/01/19 04:22:47;;;;;;;4.70;1.33;;;16.40;56.40;;;;;;5913448;24;20167;-82
2024/01/19 04:25:13;;;;;;;3.35;1.42;;;16.40;56.20;;;;;;5884156;24;20380;-82
2024/01/19 04:27:43;;;;;;;5.35;1.50;;;16.40;56.20;;;;;;5885111;24;20214;-83
2024/01/19 04:30:09;;;;;;;3.10;1.30;;;16.30;56.30;;;;;;5840199;24;20611;-83
2024/01/19 04:32:36;;;;;;;5.35;1.85;;;16.40;56.30;;;;;;5865924;24;20189;-83
2024/01/19 04:35:06;;;;;;;3.55;1.23;;;16.30;56.30;;;;;;5884905;24;20161;-83
2024/01/19 04:37:37;;;;;;;2.67;1.30;;;16.30;56.30;;;;;;5834927;24;20166;-83
2024/01/19 04:40:06;;;;;;;3.70;1.17;;;16.40;56.30;;;;;;5813094;24;20725;-82
2024/01/19 04:42:37;;;;;;;3.72;1.30;;;16.40;56.10;;;;;;5870385;24;20150;-83
2024/01/19 04:45:08;;;;;;;5.00;1.45;;;16.40;56.20;;;;;;5878323;24;20160;-83
2024/01/19 04:47:47;;;;;;;3.60;1.45;;;16.30;56.10;;;;;;5964958;24;20172;-83
2024/01/19 04:50:15;;;;;;;3.38;1.42;;;16.30;56.20;;;;;;5971974;24;20208;-82
2024/01/19 04:52:52;;;;;;;3.50;1.50;;;16.30;56.20;;;;;;5986415;23;20155;-82
2024/01/19 04:55:25;;;;;;;3.17;1.40;;;16.40;56.20;;;;;;6114151;23;20152;-83
2024/01/19 04:58:17;;;;;;;2.63;1.20;;;16.30;56.00;;;;;;6004123;23;20154;-83
2024/01/19 05:00:47;;;;;;;4.68;1.60;;;16.30;56.10;;;;;;6049620;23;20158;-83
2024/01/19 05:03:13;;;;;;;3.85;1.08;;;16.30;56.10;;;;;;6004647;23;20150;-83
2024/01/19 05:05:46;;;;;;;4.78;1.25;;;16.30;56.20;;;;;;6003283;23;20743;-83
2024/01/19 05:08:22;;;;;;;2.65;1.48;;;16.40;56.20;;;;;;5970705;24;20635;-83
2024/01/19 05:10:48;;;;;;;3.80;1.35;;;16.30;56.10;;;;;;5900163;24;20175;-83
2024/01/19 05:13:15;;;;;;;4.28;1.40;;;16.30;56.10;;;;;;5915453;24;20161;-83
2024/01/19 05:15:43;;;;;;;3.65;1.55;;;16.30;56.00;;;;;;5938237;24;20263;-82
2024/01/19 05:18:11;;;;;;;2.47;1.20;;;16.30;56.00;;;;;;5944029;24;20178;-83
2024/01/19 05:20:50;;;;;;;5.28;1.40;;;16.30;56.00;;;;;;5944215;24;20159;-83
2024/01/19 05:23:31;;;;;;;5.30;1.50;;;16.30;56.00;;;;;;5943163;24;20159;-83
2024/01/19 05:26:01;;;;;;;4.28;1.52;;;16.40;56.10;;;;;;5944833;24;20243;-83
2024/01/19 05:28:36;;;;;;;2.75;1.25;;;16.30;56.00;;;;;;5954009;24;20154;-82
2024/01/19 05:31:07;;;;;;;2.10;1.20;;;16.30;56.10;;;;;;5944035;24;20163;-82
2024/01/19 05:33:35;;;;;;;2.70;1.20;;;16.30;56.10;;;;;;5943752;24;20164;-82
2024/01/19 05:36:03;;;;;;;2.50;1.35;;;16.30;56.00;;;;;;5943404;24;20303;-82
2024/01/19 05:38:40;;;;;;;3.33;1.30;;;16.30;55.90;;;;;;5966483;24;20148;-82
2024/01/19 05:41:07;;;;;;;2.78;1.23;;;16.30;56.10;;;;;;5979097;23;20290;-82
2024/01/19 05:43:36;;;;;;;4.15;1.25;;;16.30;56.00;;;;;;6018351;23;20163;-82
2024/01/19 05:46:09;;;;;;;3.85;1.58;;;16.30;56.10;;;;;;6037457;23;20679;-83
2024/01/19 05:48:37;;;;;;;5.00;1.40;;;16.30;56.00;;;;;;6061532;23;20149;-82
2024/01/19 05:51:12;;;;;;;3.17;1.30;;;16.30;56.00;;;;;;6059431;23;20149;-82
2024/01/19 05:53:39;;;;;;;2.97;1.30;;;16.20;55.80;;;;;;6061250;23;20153;-83
2024/01/19 05:56:09;;;;;;;3.60;1.30;;;16.30;55.70;;;;;;6036026;23;20164;-82
2024/01/19 05:58:36;;;;;;;2.50;1.33;;;16.30;56.00;;;;;;6060443;23;20145;-82
2024/01/19 06:01:02;;;;;;;2.50;1.40;;;16.30;56.00;;;;;;6028385;23;20157;-82
2024/01/19 06:03:41;;;;;;;4.05;1.52;;;16.30;56.00;;;;;;6025517;23;20207;-82
2024/01/19 06:06:11;;;;;;;3.20;1.33;;;16.30;55.80;;;;;;6027924;23;20186;-82
2024/01/19 06:08:37;;;;;;;2.20;1.20;;;16.30;55.80;;;;;;6025688;23;20161;-82
2024/01/19 06:11:03;;;;;;;3.13;1.55;;;16.30;55.70;;;;;;6001749;23;20154;-82
2024/01/19 06:13:39;;;;;;;3.17;1.40;;;16.30;55.80;;;;;;6026276;23;20158;-82
2024/01/19 06:16:08;;;;;;;3.65;1.38;;;16.30;55.70;;;;;;5981152;23;20168;-82
2024/01/19 06:18:38;;;;;;;5.10;1.30;;;16.30;55.60;;;;;;6027523;23;20198;-82
2024/01/19 06:21:09;;;;;;;2.38;1.33;;;16.30;55.60;;;;;;6027717;23;20535;-82
2024/01/19 06:23:37;;;;;;;3.47;1.60;;;16.20;55.70;;;;;;6003219;23;20248;-82
2024/01/19 06:26:11;;;;;;;3.80;1.35;;;16.30;55.80;;;;;;6026909;23;20178;-82
2024/01/19 06:28:40;;;;;;;4.15;1.50;;;16.30;55.40;;;;;;6026652;23;20194;-82
2024/01/19 06:31:12;;;;;;;5.57;1.50;;;16.30;55.60;;;;;;6028889;23;20154;-82
2024/01/19 06:33:46;;;;;;;4.55;1.45;;;16.30;55.50;;;;;;6001276;23;20157;-82
2024/01/19 06:36:13;;;;;;;2.33;1.23;;;16.20;55.60;;;;;;6034299;23;20215;-81
2024/01/19 06:38:40;;;;;;;3.25;1.40;;;16.20;55.60;;;;;;6034859;23;20146;-82
2024/01/19 06:41:06;;;;;;;2.92;1.10;;;16.20;55.60;;;;;;6034266;23;20137;-82
2024/01/19 06:43:33;;;;;;;3.45;1.10;;;16.20;55.70;;;;;;6010477;23;20278;-82
2024/01/19 06:45:59;;;;;;;2.83;1.33;;;16.30;55.40;;;;;;6092843;23;20183;-81
2024/01/19 06:48:29;;;;;;;2.83;1.20;;;16.30;55.70;;;;;;6096603;23;20150;-82
2024/01/19 06:51:04;;;;;;;3.45;1.50;;;16.20;55.50;;;;;;6120334;23;20187;-82
2024/01/19 06:53:33;;;;;;;1.98;1.30;;;16.20;55.70;;;;;;6071115;23;20285;-82
2024/01/19 06:56:06;;;;;;;3.30;1.35;;;16.20;55.60;;;;;;6146285;23;20590;-82
2024/01/19 06:58:33;;;;;;;2.65;1.48;;;16.30;55.60;;;;;;6073849;23;20152;-82
2024/01/19 07:00:59;;;;;;;3.38;1.42;;;16.20;55.50;;;;;;6145572;23;20132;-82
2024/01/19 07:03:25;;;;;;;3.53;1.35;;;16.20;55.60;;;;;;6093554;23;20148;-81
2024/01/19 07:05:59;;;;;;;3.72;1.35;;;16.20;55.60;;;;;;6144256;23;20693;-81
2024/01/19 07:08:29;;;;;;;4.07;1.30;;;16.20;55.50;;;;;;6099726;23;20158;-81
2024/01/19 07:10:57;;;;;;;2.38;1.20;;;16.20;55.20;;;;;;6094425;23;20159;-82
2024/01/19 07:13:23;;;;;;;2.30;1.10;;;16.40;54.60;;;;;;6120998;23;20207;-82
2024/01/19 07:15:49;;;;;;;3.78;1.50;;;16.40;54.20;;;;;;6120598;23;20183;-83
2024/01/19 07:18:16;;;;;;;3.05;1.20;;;16.40;54.30;;;;;;6093101;23;20144;-82
2024/01/19 07:20:43;;;;;;;3.92;1.50;;;16.50;53.60;;;;;;6115705;23;20156;-83
2024/01/19 07:23:08;;;;;;;3.63;1.30;;;16.70;53.70;;;;;;6064229;23;20148;-83
2024/01/19 07:25:37;;;;;;;3.63;1.40;;;16.60;53.30;;;;;;6056825;23;20496;-83
2024/01/19 07:28:08;;;;;;;3.30;1.10;;;16.70;53.40;;;;;;6058773;23;20148;-83
2024/01/19 07:30:34;;;;;;;3.90;1.30;;;16.70;53.60;;;;;;6105306;23;20137;-84
2024/01/19 07:33:00;;;;;;;3.55;1.23;;;16.70;53.40;;;;;;6105288;23;20142;-83
2024/01/19 07:35:50;;;;;;;4.75;1.35;;;16.70;52.90;;;;;;6081198;23;20144;-85
2024/01/19 07:42:05;;;;;;;2.65;1.25;;;16.70;52.60;;;;;;6130160;23;20148;-83
2024/01/19 08:30:18;;;;;;;;;;;;;;;;;;;;;
2024/01/19 08:36:31;;;;;;;1.83;1.00;;;17.10;50.80;;;;;;5983040;24;20238;-84
2024/01/19 08:39:58;;;;;;;2.55;1.10;;;17.10;51.10;;;;;;5911361;24;20157;-84
2024/01/19 08:45:41;;;;;;;2.88;1.33;;;17.00;51.20;;;;;;5795177;24;20757;-83
2024/01/19 08:51:54;;;;;;;;;;;;;;;;;;;;;
2024/01/19 09:09:01;;;;;;;2.70;1.10;;;16.90;51.70;;;;;;5648071;25;20183;-83
2024/01/19 09:15:20;;;;;;;;;;;;;;;;;;;;;
2024/01/19 10:15:11;;;;;;;1.85;1.00;;;16.80;51.70;;;;;;6165774;23;20211;-85
2024/01/19 10:17:44;;;;;;;3.75;1.23;;;16.80;51.10;;;;;;6123722;23;20166;-84
2024/01/19 10:20:19;;;;;;;1.35;0.80;;;16.80;51.20;;;;;;6124395;23;20164;-82
2024/01/19 10:22:46;;;;;;;2.85;1.00;;;16.80;51.20;;;;;;6100101;23;20146;-82
2024/01/19 10:25:16;;;;;;;4.93;1.13;;;16.90;51.10;;;;;;6144878;23;20136;-84
2024/01/19 10:27:46;;;;;;;3.75;1.10;;;16.90;51.30;;;;;;6142402;23;20206;-83
2024/01/19 10:30:32;;;;;;;2.22;0.90;;;16.90;51.10;;;;;;6092096;23;20150;-85
2024/01/19 11:11:58;;;;;;;1.15;0.90;;;17.20;50.40;;;;;;6156716;23;20570;-84
2024/01/19 11:14:56;;;;;;;1.65;1.23;;;17.10;50.30;;;;;;6126684;23;20190;-83
2024/01/19 11:44:57;;;;;;;1.50;0.80;;;17.30;49.80;;;;;;6078881;23;20158;-85
2024/01/19 11:47:51;;;;;;;2.10;0.90;;;17.30;49.90;;;;;;6037194;23;20177;-85
2024/01/19 11:50:16;;;;;;;1.55;0.95;;;17.30;48.80;;;;;;6104064;23;20149;-84
2024/01/19 11:53:08;;;;;;;1.33;0.90;;;17.30;49.10;;;;;;6016977;23;20165;-83
2024/01/19 11:56:14;;;;;;;;;;;;;;;;;;;;;
2024/01/19 11:58:42;;;;;;;1.75;1.10;;;17.40;49.30;;;;;;5914697;23;20646;-84
2024/01/19 12:01:11;;;;;;;1.95;0.98;;;17.40;48.80;;;;;;5917455;24;20200;-84
2024/01/19 12:03:37;;;;;;;2.33;0.98;;;17.40;49.40;;;;;;5856036;24;20155;-83
2024/01/19 12:06:12;;;;;;;1.50;1.00;;;17.30;49.50;;;;;;5876195;24;20239;-83
2024/01/19 12:08:43;;;;;;;1.25;1.05;;;17.30;49.60;;;;;;5832993;24;20543;-84
2024/01/19 12:11:14;;;;;;;1.02;0.80;;;17.30;49.60;;;;;;5831149;24;20159;-84
2024/01/19 12:13:47;;;;;;;0.90;0.75;;;17.30;49.30;;;;;;5852934;24;20674;-84
2024/01/19 12:16:33;;;;;;;1.55;1.02;;;17.30;49.90;;;;;;5832139;24;20670;-85
2024/01/19 12:19:09;;;;;;;2.00;0.85;;;17.20;50.00;;;;;;5831261;24;20155;-83
2024/01/19 12:21:57;;;;;;;1.35;0.90;;;17.20;50.30;;;;;;5832923;24;20179;-84
2024/01/19 12:24:28;;;;;;;1.20;0.90;;;17.20;50.50;;;;;;5861479;24;20217;-84
2024/01/19 12:27:01;;;;;;;2.08;1.13;;;17.20;50.60;;;;;;5937631;24;20196;-83
2024/01/19 12:29:36;;;;;;;2.00;1.00;;;17.20;50.30;;;;;;5890202;24;20168;-84
2024/01/19 12:32:21;;;;;;;0.93;0.80;;;17.30;49.90;;;;;;5904481;24;20167;-83
2024/01/19 12:34:57;;;;;;;1.30;0.90;;;17.20;49.90;;;;;;5949607;24;20997;-84
2024/01/19 12:37:33;;;;;;;1.38;0.98;;;17.30;50.00;;;;;;5968975;24;20158;-84
2024/01/19 12:40:25;;;;;;;1.85;1.17;;;17.10;50.20;;;;;;5987361;24;20151;-84
2024/01/19 12:42:51;;;;;;;1.55;0.90;;;17.10;50.30;;;;;;5985510;24;20488;-83
2024/01/19 12:45:21;;;;;;;1.00;0.80;;;17.10;50.20;;;;;;5961810;24;20174;-83
2024/01/19 12:47:48;;;;;;;2.42;0.80;;;17.10;50.20;;;;;;5985206;24;20162;-82
2024/01/19 12:50:24;;;;;;;3.15;1.10;;;17.20;50.20;;;;;;6043890;23;20149;-83
2024/01/19 12:52:54;;;;;;;1.27;0.88;;;17.20;49.90;;;;;;6051510;23;20182;-82
2024/01/19 12:55:47;;;;;;;1.38;0.80;;;17.10;49.60;;;;;;6054186;23;20156;-83
2024/01/19 12:58:24;;;;;;;1.40;1.05;;;17.10;50.10;;;;;;5995966;23;20158;-84
2024/01/19 13:00:50;;;;;;;1.25;0.90;;;17.20;49.80;;;;;;5942371;24;20159;-84
2024/01/19 13:03:20;;;;;;;1.05;0.85;;;17.20;49.80;;;;;;5943666;24;20156;-85
2024/01/19 13:05:47;;;;;;;1.73;1.00;;;17.10;50.10;;;;;;5932345;24;20254;-85
2024/01/19 13:08:42;;;;;;;1.83;0.85;;;17.10;50.10;;;;;;5922888;24;20151;-85
2024/01/19 13:11:10;;;;;;;1.10;0.80;;;17.10;49.70;;;;;;5959192;24;20159;-85
2024/01/19 13:13:42;;;;;;;2.42;1.05;;;17.20;50.20;;;;;;5969222;24;20210;-85
2024/01/19 13:16:12;;;;;;;1.40;0.80;;;17.10;50.10;;;;;;5947070;24;20215;-83
2024/01/19 13:18:39;;;;;;;1.23;0.95;;;17.10;50.30;;;;;;5945150;24;20206;-83
2024/01/19 13:21:18;;;;;;;2.35;0.82;;;17.10;50.10;;;;;;5923701;24;20175;-85
2024/01/19 13:23:48;;;;;;;1.17;0.75;;;17.10;49.90;;;;;;5917315;24;20164;-85
2024/01/19 13:26:16;;;;;;;2.20;1.08;;;17.10;50.30;;;;;;5915506;24;20188;-84
2024/01/19 13:28:47;;;;;;;1.13;0.80;;;17.20;49.80;;;;;;5872518;24;20160;-84
2024/01/19 13:31:21;;;;;;;1.17;0.70;;;17.20;49.80;;;;;;5942468;24;20158;-86
2024/01/19 13:33:47;;;;;;;1.15;1.05;;;17.20;49.50;;;;;;5964664;24;20239;-84
2024/01/19 13:36:16;;;;;;;1.25;0.90;;;17.20;49.30;;;;;;5959134;24;20184;-84
2024/01/19 13:38:48;;;;;;;1.20;0.80;;;17.20;49.50;;;;;;5934949;24;20521;-85
2024/01/19 13:41:19;;;;;;;1.38;1.00;;;17.30;49.50;;;;;;5917239;24;20155;-85
2024/01/19 13:43:47;;;;;;;1.23;1.00;;;17.30;48.80;;;;;;5914385;24;20639;-85
2024/01/19 13:46:14;;;;;;;1.55;0.90;;;17.30;48.70;;;;;;5937589;24;20326;-85
2024/01/19 13:48:41;;;;;;;1.77;0.90;;;17.30;49.10;;;;;;5961169;24;20572;-83
2024/01/19 13:51:09;;;;;;;1.20;0.75;;;17.30;49.20;;;;;;5961262;24;20230;-85
2024/01/19 13:53:36;;;;;;;3.60;0.90;;;17.30;49.00;;;;;;5941128;23;20503;-84
2024/01/19 13:56:03;;;;;;;1.10;0.70;;;17.30;49.00;;;;;;6049577;23;20154;-86
2024/01/19 13:58:29;;;;;;;1.02;0.90;;;17.30;48.20;;;;;;6052558;23;20659;-85
2024/01/19 14:01:13;;;;;;;3.03;1.13;;;17.30;49.00;;;;;;6058197;23;20229;-84
2024/01/19 14:03:47;;;;;;;1.02;0.93;;;17.30;48.90;;;;;;6052990;23;20149;-85
2024/01/19 14:06:23;;;;;;;1.20;0.80;;;17.20;49.60;;;;;;6044673;23;20189;-83
2024/01/19 14:08:56;;;;;;;1.15;0.82;;;17.20;49.50;;;;;;6069514;23;20234;-84
2024/01/19 14:11:42;;;;;;;1.40;0.80;;;17.30;49.30;;;;;;6081178;23;20176;-82
2024/01/19 14:14:10;;;;;;;1.25;0.85;;;17.30;49.30;;;;;;6103735;23;20275;-83
2024/01/19 14:17:24;;;;;;;2.15;0.98;;;17.20;48.60;;;;;;6084518;23;20160;-83
2024/01/19 14:20:14;;;;;;;1.60;1.02;;;17.30;48.60;;;;;;6083741;23;20144;-85
2024/01/19 14:22:43;;;;;;;1.98;1.10;;;17.30;48.00;;;;;;6063668;23;20152;-84
2024/01/19 14:25:18;;;;;;;0.90;0.77;;;17.30;49.80;;;;;;6090688;23;20141;-86
2024/01/19 14:27:46;;;;;;;1.30;0.95;;;17.20;48.70;;;;;;6086562;23;20180;-85
2024/01/19 14:30:23;;;;;;;1.60;0.82;;;17.30;49.40;;;;;;6085578;23;20141;-85
2024/01/19 14:32:58;;;;;;;1.63;1.13;;;17.20;49.70;;;;;;6047425;23;20147;-86
2024/01/19 14:35:31;;;;;;;1.88;1.17;;;17.20;49.40;;;;;;6003416;23;20154;-85
2024/01/19 14:40:53;;;;;;;1.40;1.00;;;17.20;48.90;;;;;;5912451;24;20240;-82
2024/01/19 14:43:34;;;;;;;2.03;1.00;;;17.20;49.10;;;;;;5892349;24;20161;-85
2024/01/19 14:46:12;;;;;;;1.13;1.00;;;17.20;49.40;;;;;;5943660;24;20199;-84
2024/01/19 14:52:39;;;;;;;2.08;0.98;;;17.20;49.00;;;;;;5828441;24;20593;-84
2024/01/19 14:55:06;;;;;;;1.17;0.80;;;17.20;49.10;;;;;;5804127;24;20202;-83
2024/01/19 14:57:32;;;;;;;1.60;0.93;;;17.20;49.50;;;;;;5786572;24;20171;-84
2024/01/19 15:00:00;;;;;;;1.35;1.10;;;17.20;49.70;;;;;;5759203;24;20190;-84
2024/01/19 15:02:39;;;;;;;7.25;1.45;;;17.20;49.70;;;;;;5799990;24;20232;-85
2024/01/19 15:05:20;;;;;;;;;;;;;;;;;;;;;
2024/01/19 15:08:09;;;;;;;;;;;;;;;;;;;;;
2024/01/19 15:14:07;;;;;;;4.55;1.27;;;17.20;49.90;;;;;;5746306;25;20214;-84
2024/01/19 15:17:04;;;;;;;;;;;;;;;;;;;;;
2024/01/19 15:19:57;;;;;;;6.28;1.05;;;17.20;49.50;;;;;;5685986;25;20759;-85
2024/01/19 15:23:25;;;;;;;;;;;;;;;;;;;;;
2024/01/19 15:26:24;;;;;;;;;;;;;;;;;;;;;
2024/01/19 15:29:19;;;;;;;4.70;1.13;;;17.20;49.60;;;;;;5660209;25;20164;-84
2024/01/19 15:31:57;;;;;;;3.83;1.20;;;17.20;49.40;;;;;;5658462;25;20199;-83
2024/01/19 15:34:37;;;;;;;1.85;1.00;;;17.30;49.60;;;;;;5666292;24;20168;-82
2024/01/19 15:38:03;;;;;;;4.88;1.15;;;17.20;49.20;;;;;;5755253;24;20309;-83
2024/01/19 15:40:51;;;;;;;3.08;0.90;;;17.30;49.50;;;;;;5708609;25;20167;-82
2024/01/19 15:43:21;;;;;;;6.40;1.10;;;17.20;50.10;;;;;;5665702;25;20275;-82
2024/01/19 15:46:05;;;;;;;1.27;0.85;;;17.10;49.50;;;;;;5762736;24;20229;-83
2024/01/19 15:48:58;;;;;;;;;;;;;;;;;;;;;
2024/01/19 15:51:43;;;;;;;2.80;1.23;;;17.30;48.90;;;;;;5790538;24;20191;-82
2024/01/19 15:54:51;;;;;;;3.33;1.10;;;17.40;47.80;;;;;;5790321;24;20218;-82
2024/01/19 15:57:27;;;;;;;2.28;0.88;;;17.40;47.80;;;;;;5788609;24;20167;-82
2024/01/19 16:00:23;;;;;;;4.15;1.10;;;17.50;48.60;;;;;;5766519;24;20168;-83
2024/01/19 16:03:15;;;;;;;;;;;;;;;;;;;;;
2024/01/19 16:06:19;;;;;;;2.95;1.17;;;17.30;49.20;;;;;;5787800;24;20164;-82
2024/01/19 16:09:03;;;;;;;;;;;;;;;;;;;;;
2024/01/19 16:11:30;;;;;;;3.25;1.00;;;17.30;48.40;;;;;;5941944;24;20174;-81
2024/01/19 16:14:13;;;;;;;;;;;;;;;;;;;;;
2024/01/19 16:17:14;;;;;;;;;;;;;;;;;;;;;
2024/01/19 16:20:12;;;;;;;4.57;1.20;;;17.50;48.40;;;;;;6148808;23;20157;-82
2024/01/19 16:23:24;;;;;;;;;;;;;;;;;;;;;
2024/01/19 16:26:36;;;;;;;2.72;1.30;;;17.50;48.40;;;;;;5808706;24;20207;-86
2024/01/19 16:29:20;;;;;;;;;;;;;;;;;;;;;
2024/01/19 16:31:47;;;;;;;7.65;1.20;;;17.50;48.20;;;;;;5804762;24;20248;-81
2024/01/19 16:34:19;;;;;;;6.22;1.00;;;17.50;49.10;;;;;;5805690;24;20525;-82
2024/01/19 16:36:55;;;;;;;13.88;1.40;;;17.50;48.20;;;;;;5772594;24;20185;-83
2024/01/19 16:39:31;;;;;;;10.40;1.40;;;17.50;49.00;;;;;;5725357;25;20165;-82
2024/01/19 16:42:02;;;;;;;4.63;1.15;;;17.50;48.20;;;;;;5704736;25;20173;-82
2024/01/19 16:44:31;;;;;;;4.85;1.70;;;17.60;48.60;;;;;;5702701;25;20170;-81
2024/01/19 16:47:04;;;;;;;8.30;1.52;;;17.70;47.50;;;;;;5725490;25;20242;-81
2024/01/19 16:49:32;;;;;;;8.30;1.92;;;17.50;48.70;;;;;;5699928;25;20166;-83
2024/01/19 16:52:08;;;;;;;10.10;1.63;;;17.50;48.20;;;;;;5699811;25;20268;-82
2024/01/19 16:54:44;;;;;;;16.10;1.90;;;17.60;47.30;;;;;;5739625;24;20163;-82
2024/01/19 16:57:14;;;;;;;33.22;3.08;;;17.60;49.10;;;;;;5861734;24;20161;-81
2024/01/19 17:00:00;;;;;;;25.73;2.97;;;17.60;49.50;;;;;;5936031;23;20154;-84
2024/01/19 17:02:30;;;;;;;315.08;19.60;;;17.60;48.30;;;;;;5967310;24;20687;-82
2024/01/19 17:05:29;;;;;;;245.98;15.90;;;17.60;48.70;;;;;;5965546;24;20159;-82
2024/01/19 17:08:20;;;;;;;208.50;14.52;;;17.60;49.50;;;;;;5968147;24;20187;-82
2024/01/19 17:11:01;;;;;;;149.43;10.60;;;17.60;49.80;;;;;;5962948;24;20171;-81
2024/01/19 17:13:32;;;;;;;98.43;7.75;;;17.50;50.00;;;;;;5957053;23;20204;-82
2024/01/19 17:15:59;;;;;;;73.65;6.30;;;17.60;48.00;;;;;;6002513;23;20179;-82
2024/01/19 17:19:08;;;;;;;72.13;5.30;;;17.70;47.60;;;;;;6000232;23;20158;-83
2024/01/19 17:22:03;;;;;;;;;;;;;;;;;;;;;
2024/01/19 17:24:58;;;;;;;38.38;4.57;;;17.70;47.60;;;;;;5839935;24;20201;-83
2024/01/19 17:27:48;;;;;;;54.42;4.40;;;17.70;47.70;;;;;;5863814;24;20255;-82
2024/01/19 17:30:26;;;;;;;44.85;4.38;;;17.70;47.10;;;;;;5839539;24;20199;-81
2024/01/19 17:33:04;;;;;;;33.35;4.05;;;17.60;49.00;;;;;;5831997;24;20162;-82
2024/01/19 17:35:43;;;;;;;37.38;4.30;;;17.60;48.50;;;;;;5856229;24;20669;-82
2024/01/19 17:38:09;;;;;;;41.78;4.22;;;17.60;47.70;;;;;;5852587;24;20215;-81
2024/01/19 17:40:35;;;;;;;34.53;4.70;;;17.60;48.70;;;;;;5882420;24;20161;-81
2024/01/19 17:43:06;;;;;;;41.33;3.78;;;17.60;48.10;;;;;;5888674;24;20169;-82
2024/01/19 17:45:46;;;;;;;29.30;3.65;;;17.60;47.80;;;;;;5910599;24;20151;-81
2024/01/19 17:48:12;;;;;;;39.58;4.35;;;17.80;47.60;;;;;;5935247;24;20176;-81
2024/01/19 17:50:47;;;;;;;46.08;4.90;;;17.70;48.40;;;;;;5890959;24;20180;-80
2024/01/19 17:53:25;;;;;;;37.55;4.65;;;17.60;48.30;;;;;;5873819;24;20167;-82
2024/01/19 17:55:58;;;;;;;35.75;4.50;;;17.60;48.70;;;;;;5867349;24;20161;-81
2024/01/19 17:58:35;;;;;;;45.65;4.57;;;17.70;48.20;;;;;;5893557;24;20185;-81
2024/01/19 18:01:01;;;;;;;37.25;3.80;;;17.60;48.60;;;;;;5987704;24;20215;-81
2024/01/19 18:46:59;;;;;;;78.75;6.72;;;17.60;49.60;;;;;;6168020;23;20217;-83
2024/01/19 18:49:27;;;;;;;68.55;5.78;;;17.50;49.60;;;;;;6127562;23;20156;-83
2024/01/19 18:51:57;;;;;;;73.88;6.75;;;17.60;49.30;;;;;;6130649;23;20642;-82
2024/01/19 18:54:43;;;;;;;;;;;;;;;;;;;;;
2024/01/19 18:57:24;;;;;;;48.30;5.18;;;17.60;49.80;;;;;;6130589;23;20590;-83
2024/01/19 18:59:56;;;;;;;46.10;5.97;;;17.60;49.40;;;;;;6038663;23;20184;-84
2024/01/19 19:02:22;;;;;;;47.70;4.72;;;17.60;49.10;;;;;;6087872;23;20293;-83